Time;durP1;ratioP1;P1;durP2;ratioP2;P2;SDS_P1;SDS_P2;PMS_P1;PMS_P2;Temp;Humidity;BMP_temperature;BMP_pressure;BME280_temperature;BME280_humidity;BME280_pressure;Samples;Min_cycle;Max_cycle;Signal;HPM_P1;HPM_P2
2021/11/13 00:02:18;;;;;;;6.97;4.73;;;15.60;99.90;;;;;;5087641;28;20945;-69
2021/11/13 00:04:49;;;;;;;5.60;4.30;;;15.50;99.90;;;;;;5090583;28;20451;-68
2021/11/13 00:07:20;;;;;;;4.57;4.17;;;15.50;99.90;;;;;;5085401;28;20462;-68
2021/11/13 00:09:53;;;;;;;4.77;4.40;;;15.50;99.90;;;;;;5090388;28;20840;-68
2021/11/13 00:12:24;;;;;;;4.50;4.10;;;15.50;99.90;;;;;;5084147;28;20819;-69
2021/11/13 00:14:55;;;;;;;4.90;4.50;;;15.40;99.90;;;;;;5103722;28;20461;-69
2021/11/13 00:17:25;;;;;;;3.83;3.63;;;15.50;99.90;;;;;;5103774;28;20476;-68
2021/11/13 00:19:56;;;;;;;3.17;2.93;;;15.40;99.90;;;;;;5101899;28;20450;-69
2021/11/13 00:22:28;;;;;;;4.13;3.80;;;15.40;99.90;;;;;;5098007;28;20962;-69
2021/11/13 00:25:00;;;;;;;4.77;4.37;;;15.40;99.90;;;;;;5084514;28;20904;-69
2021/11/13 00:27:31;;;;;;;5.80;5.20;;;15.40;99.90;;;;;;5101936;28;20489;-69
2021/11/13 00:30:02;;;;;;;5.30;4.80;;;15.40;99.90;;;;;;5107777;28;20477;-69
2021/11/13 00:32:33;;;;;;;5.00;4.60;;;15.40;99.90;;;;;;5088404;28;20443;-68
2021/11/13 00:35:04;;;;;;;4.83;4.33;;;15.40;99.90;;;;;;5088865;28;20458;-69
2021/11/13 00:37:35;;;;;;;8.80;5.57;;;15.40;99.90;;;;;;5105155;28;20458;-69
2021/11/13 00:40:09;;;;;;;5.33;4.83;;;15.40;99.90;;;;;;5091227;28;20443;-69
2021/11/13 00:42:40;;;;;;;5.40;5.00;;;15.40;99.90;;;;;;5089919;28;20476;-69
2021/11/13 00:45:12;;;;;;;4.57;4.27;;;15.30;99.90;;;;;;5080194;28;20453;-69
2021/11/13 00:47:43;;;;;;;6.07;5.50;;;15.40;99.90;;;;;;5083737;28;20454;-68
2021/11/13 00:50:15;;;;;;;7.63;7.00;;;15.40;99.90;;;;;;5088704;28;20498;-69
2021/11/13 00:52:46;;;;;;;6.07;5.47;;;15.30;99.90;;;;;;5094094;28;20450;-69
2021/11/13 00:55:20;;;;;;;6.33;5.73;;;15.30;99.90;;;;;;5092649;28;20461;-69
2021/11/13 00:57:52;;;;;;;6.63;5.93;;;15.30;99.90;;;;;;5108486;28;20457;-68
2021/11/13 01:00:23;;;;;;;4.73;4.30;;;15.30;99.90;;;;;;5089422;28;20453;-69
2021/11/13 01:02:54;;;;;;;5.90;3.70;;;15.30;99.90;;;;;;5098395;28;20962;-69
2021/11/13 01:05:25;;;;;;;4.03;3.63;;;15.30;99.90;;;;;;5102519;28;20488;-69
2021/11/13 01:07:56;;;;;;;3.50;3.20;;;15.30;99.90;;;;;;5094149;28;20957;-69
2021/11/13 01:10:28;;;;;;;4.23;3.83;;;15.30;99.90;;;;;;5102521;28;21009;-69
2021/11/13 01:12:59;;;;;;;5.03;4.53;;;15.30;99.90;;;;;;5089488;28;20446;-69
2021/11/13 01:15:30;;;;;;;4.00;3.70;;;15.20;99.90;;;;;;5093580;28;20450;-69
2021/11/13 01:18:02;;;;;;;3.37;3.13;;;15.30;99.90;;;;;;5091112;28;20458;-69
2021/11/13 01:20:32;;;;;;;3.70;3.40;;;15.20;99.90;;;;;;5104017;28;20461;-69
2021/11/13 01:23:03;;;;;;;3.37;3.17;;;15.20;99.90;;;;;;5096839;28;20458;-69
2021/11/13 01:25:36;;;;;;;3.73;3.43;;;15.20;99.90;;;;;;5079706;28;20478;-69
2021/11/13 01:28:07;;;;;;;3.30;3.10;;;15.10;99.90;;;;;;5089802;28;20458;-69
2021/11/13 01:30:38;;;;;;;3.10;2.90;;;15.10;99.90;;;;;;5089985;28;20486;-69
2021/11/13 01:33:09;;;;;;;3.57;3.30;;;15.10;99.90;;;;;;5094718;28;20917;-69
2021/11/13 01:35:40;;;;;;;3.60;3.30;;;15.10;99.90;;;;;;5095371;28;20453;-70
2021/11/13 01:38:11;;;;;;;3.50;3.20;;;15.10;99.90;;;;;;5104123;28;20465;-69
2021/11/13 01:40:43;;;;;;;3.07;2.97;;;15.10;99.90;;;;;;5104813;28;20455;-69
2021/11/13 01:43:14;;;;;;;4.60;4.30;;;15.10;99.90;;;;;;5103298;28;20805;-70
2021/11/13 01:45:45;;;;;;;5.53;5.13;;;15.10;99.90;;;;;;5083105;28;20455;-69
2021/11/13 01:48:15;;;;;;;4.70;3.70;;;15.10;99.90;;;;;;5092174;28;20473;-69
2021/11/13 01:50:48;;;;;;;4.07;3.73;;;15.00;99.90;;;;;;5091505;28;20505;-69
2021/11/13 01:53:18;;;;;;;3.80;3.50;;;15.10;99.90;;;;;;5091293;28;20477;-70
2021/11/13 01:55:54;;;;;;;3.93;3.70;;;15.10;99.90;;;;;;5091428;28;20461;-69
2021/11/13 01:58:25;;;;;;;4.60;3.73;;;15.10;99.90;;;;;;5099610;28;20464;-69
2021/11/13 02:00:59;;;;;;;3.93;3.63;;;15.00;99.90;;;;;;5099430;28;20458;-70
2021/11/13 02:03:30;;;;;;;3.90;3.60;;;15.10;99.90;;;;;;5100182;28;20451;-69
2021/11/13 02:06:01;;;;;;;4.10;3.80;;;15.10;99.90;;;;;;5087033;28;20447;-69
2021/11/13 02:08:32;;;;;;;4.57;4.27;;;15.10;99.90;;;;;;5092540;28;21011;-69
2021/11/13 02:11:04;;;;;;;3.70;3.40;;;15.10;99.90;;;;;;5097572;28;20587;-69
2021/11/13 02:13:35;;;;;;;4.40;4.00;;;15.10;99.90;;;;;;5097378;28;20454;-69
2021/11/13 02:16:08;;;;;;;4.97;4.57;;;15.10;99.90;;;;;;5101881;28;20453;-69
2021/11/13 02:18:39;;;;;;;4.87;4.57;;;15.10;99.90;;;;;;5098794;28;20533;-69
2021/11/13 02:21:12;;;;;;;5.03;4.60;;;15.10;99.90;;;;;;5099042;28;20617;-70
2021/11/13 02:23:44;;;;;;;5.67;5.27;;;15.10;99.90;;;;;;5095687;28;20453;-69
2021/11/13 02:26:15;;;;;;;5.30;5.00;;;15.10;99.90;;;;;;5112588;28;20977;-69
2021/11/13 02:28:46;;;;;;;5.10;4.70;;;15.10;99.90;;;;;;5097583;28;20443;-69
2021/11/13 02:31:17;;;;;;;4.90;4.50;;;15.20;99.90;;;;;;5090956;28;20482;-69
2021/11/13 02:33:48;;;;;;;4.60;4.30;;;15.10;99.90;;;;;;5104392;28;20460;-69
2021/11/13 02:36:20;;;;;;;4.90;4.43;;;15.10;99.90;;;;;;5107331;28;20454;-69
2021/11/13 02:38:55;;;;;;;5.70;5.20;;;15.10;99.90;;;;;;5091955;28;20830;-69
2021/11/13 02:41:28;;;;;;;5.10;4.77;;;15.10;99.90;;;;;;5090405;28;20454;-69
2021/11/13 02:44:00;;;;;;;4.70;4.30;;;15.10;99.90;;;;;;5093862;28;20454;-69
2021/11/13 02:46:32;;;;;;;5.07;4.60;;;15.10;99.90;;;;;;5094505;28;20858;-69
2021/11/13 02:49:04;;;;;;;5.20;4.83;;;15.20;99.90;;;;;;5086041;28;20450;-70
2021/11/13 02:51:37;;;;;;;4.93;4.63;;;15.20;99.90;;;;;;5090027;28;20474;-69
2021/11/13 02:54:08;;;;;;;4.70;4.40;;;15.10;99.90;;;;;;5092907;28;20768;-70
2021/11/13 02:56:38;;;;;;;5.47;5.07;;;15.20;99.90;;;;;;5098523;28;20455;-69
2021/11/13 02:59:09;;;;;;;5.60;5.20;;;15.10;99.90;;;;;;5099344;28;20447;-69
2021/11/13 03:01:40;;;;;;;5.83;5.43;;;15.20;99.90;;;;;;5090111;28;20450;-70
2021/11/13 03:04:12;;;;;;;5.67;5.27;;;15.20;99.90;;;;;;5088005;28;20443;-69
2021/11/13 03:06:45;;;;;;;6.20;5.70;;;15.20;99.90;;;;;;5089850;28;20474;-70
2021/11/13 03:09:18;;;;;;;5.70;5.30;;;15.20;99.90;;;;;;5089547;28;20458;-70
2021/11/13 03:11:49;;;;;;;5.47;5.03;;;15.30;99.90;;;;;;5085783;28;20573;-70
2021/11/13 03:14:20;;;;;;;6.07;5.60;;;15.30;99.90;;;;;;5089775;28;20454;-69
2021/11/13 03:16:51;;;;;;;7.00;6.50;;;15.30;99.90;;;;;;5089631;28;20463;-69
2021/11/13 03:19:22;;;;;;;5.93;5.53;;;15.30;99.90;;;;;;5098801;28;20461;-69
2021/11/13 03:21:54;;;;;;;7.00;6.40;;;15.30;99.90;;;;;;5090271;28;20446;-69
2021/11/13 03:24:27;;;;;;;6.67;6.17;;;15.30;99.90;;;;;;5103999;28;20561;-69
2021/11/13 03:27:00;;;;;;;6.83;6.33;;;15.30;99.90;;;;;;5090596;28;20480;-69
2021/11/13 03:29:36;;;;;;;7.00;6.40;;;15.30;99.90;;;;;;5101201;28;20494;-69
2021/11/13 03:32:08;;;;;;;5.83;5.40;;;15.30;99.90;;;;;;5092362;28;20959;-70
2021/11/13 03:34:39;;;;;;;7.27;6.63;;;15.30;99.90;;;;;;5105803;28;20478;-70
2021/11/13 03:37:12;;;;;;;7.67;7.03;;;15.20;99.90;;;;;;5089527;28;20512;-70
2021/11/13 03:39:43;;;;;;;8.90;8.10;;;15.30;99.90;;;;;;5105987;28;20486;-70
2021/11/13 03:42:14;;;;;;;8.30;7.60;;;15.30;99.90;;;;;;5090116;28;20461;-70
2021/11/13 03:44:45;;;;;;;8.87;8.17;;;15.40;99.90;;;;;;5101054;27;20466;-69
2021/11/13 03:47:15;;;;;;;8.90;8.00;;;15.30;99.90;;;;;;5078721;28;20465;-69
2021/11/13 03:49:46;;;;;;;9.67;8.87;;;15.30;99.90;;;;;;5101016;28;20454;-69
2021/11/13 03:52:19;;;;;;;11.83;10.77;;;15.30;99.90;;;;;;5090819;28;20484;-69
2021/11/13 03:54:50;;;;;;;13.73;12.53;;;15.30;99.90;;;;;;5091154;28;20997;-69
2021/11/13 03:57:20;;;;;;;12.83;11.50;;;15.40;99.90;;;;;;5100282;28;20451;-69
2021/11/13 03:59:51;;;;;;;14.73;13.50;;;15.40;99.90;;;;;;5089225;28;20459;-69
2021/11/13 04:02:22;;;;;;;11.70;10.70;;;15.40;99.90;;;;;;5095797;28;20469;-69
2021/11/13 04:04:53;;;;;;;11.43;10.30;;;15.30;99.90;;;;;;5090124;28;20458;-69
2021/11/13 04:07:25;;;;;;;14.37;11.60;;;15.30;99.90;;;;;;5095604;28;20453;-69
2021/11/13 04:09:56;;;;;;;13.67;12.47;;;15.20;99.90;;;;;;5094462;28;20825;-69
2021/11/13 04:12:27;;;;;;;12.63;11.63;;;15.10;99.90;;;;;;5088304;28;20489;-69
2021/11/13 04:14:58;;;;;;;12.20;11.20;;;15.10;99.90;;;;;;5096180;28;20468;-69
2021/11/13 04:17:29;;;;;;;14.20;13.07;;;15.10;99.90;;;;;;5097914;28;20952;-69
2021/11/13 04:20:00;;;;;;;13.00;11.90;;;15.20;99.90;;;;;;5105447;28;20465;-69
2021/11/13 04:22:32;;;;;;;13.57;12.47;;;15.20;99.90;;;;;;5098398;28;20770;-69
2021/11/13 04:25:03;;;;;;;14.20;12.90;;;15.20;99.90;;;;;;5092496;28;20449;-69
2021/11/13 04:27:35;;;;;;;12.53;11.50;;;15.10;99.90;;;;;;5057590;28;20460;-69
2021/11/13 04:30:07;;;;;;;12.03;11.03;;;15.10;99.90;;;;;;5045035;28;20454;-69
2021/11/13 04:32:38;;;;;;;14.70;13.60;;;15.10;99.90;;;;;;5049163;28;20484;-69
2021/11/13 04:35:20;;;;;;;14.10;12.90;;;15.10;99.90;;;;;;5049955;28;20628;-70
2021/11/13 04:37:55;;;;;;;15.50;14.30;;;15.10;99.90;;;;;;5035984;28;20953;-69
2021/11/13 04:40:28;;;;;;;15.63;14.33;;;15.10;99.90;;;;;;5048381;28;20961;-70
2021/11/13 04:42:59;;;;;;;15.30;14.00;;;15.10;99.90;;;;;;5057352;28;20448;-69
2021/11/13 04:45:30;;;;;;;16.40;14.90;;;15.10;99.90;;;;;;5052652;28;20812;-69
2021/11/13 04:48:03;;;;;;;14.43;13.13;;;15.10;99.90;;;;;;5052709;28;20449;-69
2021/11/13 04:50:36;;;;;;;16.63;15.23;;;15.10;99.90;;;;;;5036495;28;20452;-69
2021/11/13 04:53:09;;;;;;;15.93;14.57;;;15.10;99.90;;;;;;5046379;28;20454;-69
2021/11/13 04:55:39;;;;;;;12.30;11.00;;;15.10;99.90;;;;;;5048296;28;20897;-69
2021/11/13 04:58:10;;;;;;;10.30;9.30;;;15.10;99.90;;;;;;5056485;28;20475;-69
2021/11/13 05:00:41;;;;;;;9.13;8.33;;;15.10;99.90;;;;;;5062104;28;20463;-69
2021/11/13 05:03:12;;;;;;;10.90;9.90;;;15.10;99.90;;;;;;5051808;28;20456;-69
2021/11/13 05:05:43;;;;;;;12.40;11.40;;;15.10;99.90;;;;;;5047945;28;20471;-69
2021/11/13 05:08:16;;;;;;;11.80;10.67;;;15.10;99.90;;;;;;5057008;28;20447;-70
2021/11/13 05:10:48;;;;;;;9.40;8.63;;;15.00;99.90;;;;;;5055839;28;20868;-69
2021/11/13 05:13:19;;;;;;;8.60;7.90;;;15.00;99.90;;;;;;5047406;28;20452;-69
2021/11/13 05:15:50;;;;;;;7.50;6.90;;;15.00;99.90;;;;;;5051466;28;20962;-69
2021/11/13 05:18:22;;;;;;;7.00;6.40;;;14.90;99.90;;;;;;5046004;28;20452;-69
2021/11/13 05:20:53;;;;;;;6.90;6.40;;;14.90;99.90;;;;;;5047943;28;20463;-69
2021/11/13 05:23:25;;;;;;;6.40;5.90;;;14.90;99.90;;;;;;5048370;28;20463;-69
2021/11/13 05:25:56;;;;;;;5.97;5.47;;;14.90;99.90;;;;;;5061024;28;20482;-69
2021/11/13 05:28:27;;;;;;;5.53;5.03;;;14.80;99.90;;;;;;5087367;28;20963;-69
2021/11/13 05:30:58;;;;;;;6.40;4.07;;;14.80;99.90;;;;;;5095171;28;20449;-70
2021/11/13 05:33:29;;;;;;;4.00;3.70;;;14.80;99.90;;;;;;5098075;28;20485;-69
2021/11/13 05:36:05;;;;;;;4.13;3.60;;;14.70;99.90;;;;;;5101113;28;20466;-70
2021/11/13 05:38:37;;;;;;;4.10;3.80;;;14.70;99.90;;;;;;5081397;28;20468;-70
2021/11/13 05:41:08;;;;;;;4.30;3.87;;;14.70;99.90;;;;;;5102876;28;20451;-70
2021/11/13 05:43:39;;;;;;;5.97;5.37;;;14.60;99.90;;;;;;5108434;28;20916;-70
2021/11/13 05:46:10;;;;;;;9.07;7.33;;;14.50;99.90;;;;;;5083881;28;21267;-70
2021/11/13 05:48:41;;;;;;;6.60;6.00;;;14.60;99.90;;;;;;5092203;28;20461;-70
2021/11/13 05:51:11;;;;;;;6.57;5.97;;;14.50;99.90;;;;;;5104081;28;20918;-70
2021/11/13 05:53:44;;;;;;;7.17;6.57;;;14.50;99.90;;;;;;5092693;28;20446;-70
2021/11/13 05:56:15;;;;;;;6.70;6.10;;;14.50;99.90;;;;;;5103883;28;20450;-70
2021/11/13 05:59:01;;;;;;;6.57;5.90;;;14.40;99.90;;;;;;5098757;28;20446;-70
2021/11/13 06:01:32;;;;;;;6.50;5.90;;;14.50;99.90;;;;;;5111556;28;20561;-70
2021/11/13 06:04:07;;;;;;;10.17;9.27;;;14.50;99.90;;;;;;5093078;28;20554;-70
2021/11/13 06:06:59;;;;;;;8.97;8.13;;;14.50;99.90;;;;;;5092816;28;20473;-70
2021/11/13 06:09:33;;;;;;;7.53;6.87;;;14.40;99.90;;;;;;5084191;28;20454;-70
2021/11/13 06:12:04;;;;;;;8.00;7.20;;;14.50;99.90;;;;;;5096599;28;20489;-70
2021/11/13 06:14:35;;;;;;;7.77;5.93;;;14.40;99.90;;;;;;5092563;28;20561;-70
2021/11/13 06:17:06;;;;;;;6.53;5.83;;;14.20;99.90;;;;;;5092661;28;20943;-70
2021/11/13 06:19:37;;;;;;;5.37;4.60;;;14.10;99.90;;;;;;5089999;28;20454;-70
2021/11/13 06:22:07;;;;;;;3.90;3.60;;;14.00;99.90;;;;;;5092299;28;20956;-69
2021/11/13 06:24:40;;;;;;;5.90;5.40;;;13.90;99.90;;;;;;5090582;28;20454;-70
2021/11/13 06:27:12;;;;;;;5.67;5.20;;;13.80;99.90;;;;;;5102310;28;20474;-70
2021/11/13 06:29:42;;;;;;;5.60;5.10;;;13.80;99.90;;;;;;5104300;28;20453;-70
2021/11/13 06:32:13;;;;;;;5.77;5.27;;;13.70;99.90;;;;;;5093350;28;20482;-70
2021/11/13 06:34:44;;;;;;;6.10;5.50;;;13.60;99.90;;;;;;5091513;28;20478;-70
2021/11/13 06:37:15;;;;;;;7.97;6.10;;;13.50;99.90;;;;;;5090557;28;20764;-70
2021/11/13 06:39:48;;;;;;;5.90;5.40;;;13.40;99.90;;;;;;5092373;28;20972;-70
2021/11/13 06:42:19;;;;;;;5.10;4.70;;;13.30;99.90;;;;;;5108385;28;20460;-70
2021/11/13 06:44:50;;;;;;;5.10;4.67;;;13.30;99.90;;;;;;5100340;28;20454;-70
2021/11/13 06:47:21;;;;;;;5.60;4.93;;;13.20;99.90;;;;;;5088115;28;20465;-70
2021/11/13 06:49:52;;;;;;;5.23;4.67;;;13.10;99.90;;;;;;5096805;28;20457;-70
2021/11/13 06:52:22;;;;;;;5.23;4.73;;;13.10;99.90;;;;;;5101096;28;20492;-69
2021/11/13 06:54:55;;;;;;;8.27;5.80;;;13.00;99.90;;;;;;5090292;28;20454;-70
2021/11/13 06:57:26;;;;;;;9.40;5.30;;;13.00;99.90;;;;;;5091413;28;20465;-70
2021/11/13 06:59:57;;;;;;;6.00;5.20;;;13.00;99.90;;;;;;5105733;28;20450;-70
2021/11/13 07:02:27;;;;;;;7.37;5.90;;;12.90;99.90;;;;;;5088694;28;20447;-69
2021/11/13 07:04:59;;;;;;;11.73;6.93;;;12.70;99.90;;;;;;5091775;28;20451;-70
2021/11/13 07:07:32;;;;;;;5.90;5.40;;;12.70;99.90;;;;;;5109101;28;20446;-70
2021/11/13 07:10:07;;;;;;;12.77;7.23;;;12.60;99.90;;;;;;5105723;28;20546;-70
2021/11/13 07:12:38;;;;;;;6.30;5.70;;;12.50;99.90;;;;;;5084709;28;20480;-70
2021/11/13 07:15:10;;;;;;;8.53;6.47;;;12.50;99.90;;;;;;5094814;28;20447;-70
2021/11/13 07:17:44;;;;;;;10.30;7.30;;;12.40;99.90;;;;;;5075466;28;20822;-69
2021/11/13 07:20:16;;;;;;;35.33;10.97;;;12.30;99.90;;;;;;5089747;28;20442;-70
2021/11/13 07:22:47;;;;;;;8.43;6.80;;;12.30;99.90;;;;;;5089732;28;20471;-70
2021/11/13 07:25:19;;;;;;;8.90;6.90;;;12.20;99.90;;;;;;5091129;28;20462;-70
2021/11/13 07:27:50;;;;;;;23.97;10.40;;;12.10;99.90;;;;;;5095963;28;20748;-70
2021/11/13 07:30:24;;;;;;;17.10;9.73;;;12.00;99.90;;;;;;5103670;28;20456;-70
2021/11/13 07:32:55;;;;;;;18.57;9.63;;;12.00;99.90;;;;;;5097031;28;20481;-69
2021/11/13 07:35:26;;;;;;;10.33;8.10;;;12.10;99.90;;;;;;5098426;28;20454;-70
2021/11/13 07:37:57;;;;;;;8.33;7.53;;;12.00;99.90;;;;;;5098094;28;20822;-69
2021/11/13 07:40:29;;;;;;;31.77;11.80;;;11.90;99.90;;;;;;5100240;28;20465;-69
2021/11/13 07:43:00;;;;;;;8.80;7.90;;;11.80;99.90;;;;;;5100822;28;20454;-69
2021/11/13 07:45:33;;;;;;;133.60;25.93;;;11.80;99.90;;;;;;5074719;28;20625;-70
2021/11/13 07:48:07;;;;;;;14.80;9.43;;;11.80;99.90;;;;;;5098279;28;20445;-70
2021/11/13 07:50:39;;;;;;;10.30;7.63;;;11.70;99.90;;;;;;5096650;28;20469;-69
2021/11/13 07:53:10;;;;;;;7.57;6.83;;;11.60;99.90;;;;;;5088731;28;20490;-69
2021/11/13 07:55:43;;;;;;;90.07;20.23;;;11.50;99.90;;;;;;5089065;28;20788;-70
2021/11/13 07:58:16;;;;;;;62.53;15.37;;;11.50;99.90;;;;;;5089976;28;20469;-69
2021/11/13 08:00:51;;;;;;;13.00;8.30;;;11.50;99.90;;;;;;5090011;28;20823;-69
2021/11/13 08:03:22;;;;;;;65.37;16.67;;;11.50;99.90;;;;;;5100055;28;20452;-69
2021/11/13 08:05:53;;;;;;;238.57;38.13;;;11.40;99.90;;;;;;5105079;28;20446;-69
2021/11/13 08:08:24;;;;;;;57.47;18.00;;;11.30;99.90;;;;;;5107761;28;20939;-69
2021/11/13 08:10:57;;;;;;;10.27;9.10;;;11.30;99.90;;;;;;5088266;28;20814;-69
2021/11/13 08:13:27;;;;;;;18.73;10.67;;;11.20;99.90;;;;;;5088435;28;20484;-69
2021/11/13 08:15:58;;;;;;;170.93;28.50;;;11.20;99.90;;;;;;5098448;28;20442;-69
2021/11/13 08:18:29;;;;;;;310.23;48.93;;;11.20;99.90;;;;;;5087865;28;20459;-69
2021/11/13 08:21:00;;;;;;;219.47;32.77;;;11.10;99.90;;;;;;5088735;28;20847;-69
2021/11/13 08:23:31;;;;;;;78.32;17.77;;;11.00;99.90;;;;;;5093534;28;20437;-69
2021/11/13 08:26:04;;;;;;;59.53;16.77;;;11.00;99.90;;;;;;5096632;28;20240;-69
2021/11/13 08:28:35;;;;;;;15.67;8.27;;;11.00;99.90;;;;;;5072641;28;20462;-69
2021/11/13 08:31:06;;;;;;;9.98;8.98;;;10.90;99.90;;;;;;5097168;28;20456;-69
2021/11/13 08:33:37;;;;;;;21.47;9.67;;;10.80;99.90;;;;;;5104944;28;20232;-69
2021/11/13 08:36:08;;;;;;;17.63;8.83;;;10.90;99.90;;;;;;5105434;28;20445;-69
2021/11/13 08:38:39;;;;;;;31.23;11.63;;;10.80;99.90;;;;;;5097909;28;20461;-69
2021/11/13 08:41:12;;;;;;;97.20;20.43;;;10.80;99.90;;;;;;5098284;28;20469;-69
2021/11/13 08:43:43;;;;;;;24.33;10.68;;;10.80;99.90;;;;;;5091190;28;20465;-69
2021/11/13 08:46:14;;;;;;;32.50;11.30;;;10.70;99.90;;;;;;5091070;28;20677;-69
2021/11/13 08:48:45;;;;;;;18.43;11.07;;;10.60;99.90;;;;;;5090724;28;20216;-69
2021/11/13 08:51:16;;;;;;;34.33;12.75;;;10.60;99.90;;;;;;5102039;28;20501;-69
2021/11/13 08:53:53;;;;;;;14.73;9.43;;;10.60;99.90;;;;;;5090896;28;20239;-69
2021/11/13 08:56:28;;;;;;;13.17;9.30;;;10.50;99.90;;;;;;5091220;28;20449;-70
2021/11/13 08:59:00;;;;;;;17.43;10.73;;;10.50;99.90;;;;;;5099798;28;20450;-69
2021/11/13 09:01:33;;;;;;;23.67;15.40;;;10.50;99.90;;;;;;5103395;28;20896;-69
2021/11/13 09:04:04;;;;;;;32.47;17.83;;;10.40;99.90;;;;;;5094016;28;20450;-69
2021/11/13 09:06:35;;;;;;;25.40;16.87;;;10.40;99.90;;;;;;5079875;28;20216;-69
2021/11/13 09:09:07;;;;;;;57.53;27.83;;;10.40;99.90;;;;;;5108084;28;20456;-70
2021/11/13 09:11:42;;;;;;;314.93;64.73;;;10.40;99.90;;;;;;5088968;28;20221;-69
2021/11/13 09:14:16;;;;;;;54.93;25.73;;;10.40;99.90;;;;;;5091441;28;20512;-69
2021/11/13 09:16:48;;;;;;;196.07;47.13;;;10.40;99.90;;;;;;5078192;28;20827;-69
2021/11/13 09:19:19;;;;;;;72.10;26.33;;;10.50;99.90;;;;;;5095387;28;20442;-70
2021/11/13 09:21:51;;;;;;;30.13;18.53;;;10.50;99.90;;;;;;5106081;28;20952;-69
2021/11/13 09:24:23;;;;;;;49.20;22.42;;;10.60;99.90;;;;;;5104395;28;20453;-70
2021/11/13 09:26:56;;;;;;;28.93;17.70;;;10.60;99.90;;;;;;5091127;28;20240;-69
2021/11/13 09:29:27;;;;;;;25.13;17.10;;;10.60;99.90;;;;;;5103222;28;20453;-69
2021/11/13 09:31:58;;;;;;;15.90;12.70;;;10.60;99.90;;;;;;5092697;28;20787;-69
2021/11/13 09:34:29;;;;;;;43.50;19.70;;;10.60;99.90;;;;;;5092816;28;20481;-69
2021/11/13 09:37:00;;;;;;;19.98;14.05;;;10.70;99.90;;;;;;5092070;28;20851;-69
2021/11/13 09:39:31;;;;;;;20.00;15.57;;;10.80;99.90;;;;;;5075328;28;20213;-69
2021/11/13 09:42:05;;;;;;;17.53;13.90;;;10.80;99.90;;;;;;5093413;28;20453;-69
2021/11/13 09:44:36;;;;;;;22.43;16.57;;;10.80;99.90;;;;;;5096746;28;20972;-70
2021/11/13 09:47:08;;;;;;;21.63;17.00;;;10.90;99.90;;;;;;5081731;28;20457;-70
2021/11/13 09:49:39;;;;;;;20.13;14.63;;;10.90;99.90;;;;;;5089197;28;20446;-70
2021/11/13 09:52:12;;;;;;;22.80;16.30;;;10.90;99.90;;;;;;5092766;28;20564;-70
2021/11/13 09:54:44;;;;;;;19.07;14.10;;;11.00;99.90;;;;;;5097269;28;20480;-70
2021/11/13 09:57:17;;;;;;;21.70;15.13;;;11.00;99.90;;;;;;5109066;28;20991;-69
2021/11/13 09:59:47;;;;;;;23.80;15.10;;;11.00;99.90;;;;;;5094256;28;20450;-69
2021/11/13 10:02:18;;;;;;;17.10;12.70;;;11.00;99.90;;;;;;5090844;28;20921;-69
2021/11/13 10:04:49;;;;;;;17.10;14.00;;;11.00;99.90;;;;;;5093250;28;20442;-69
2021/11/13 10:07:20;;;;;;;17.47;12.93;;;11.00;99.90;;;;;;5097150;28;20458;-76
2021/11/13 10:09:51;;;;;;;21.87;14.50;;;11.00;99.90;;;;;;5106820;28;20848;-71
2021/11/13 10:12:36;;;;;;;19.57;13.47;;;11.00;99.90;;;;;;5088626;28;20461;-79
2021/11/13 10:15:32;;;;;;;21.70;14.83;;;10.90;99.90;;;;;;5100992;28;20485;-71
2021/11/13 10:18:15;;;;;;;32.70;16.80;;;10.80;99.90;;;;;;5095572;28;20447;-72
2021/11/13 10:20:48;;;;;;;19.40;15.03;;;10.80;99.90;;;;;;5091024;28;20450;-73
2021/11/13 10:23:35;;;;;;;27.43;16.47;;;10.80;99.90;;;;;;5091407;28;20890;-70
2021/11/13 10:26:09;;;;;;;22.20;14.70;;;10.70;99.90;;;;;;5104318;28;20469;-74
2021/11/13 10:28:48;;;;;;;19.53;14.80;;;10.70;99.90;;;;;;5090771;28;20454;-75
2021/11/13 10:31:22;;;;;;;21.60;13.67;;;10.70;99.90;;;;;;5090938;28;20450;-73
2021/11/13 10:33:55;;;;;;;18.80;14.63;;;10.70;99.90;;;;;;5086466;28;20450;-70
2021/11/13 10:36:29;;;;;;;22.30;14.30;;;10.60;99.90;;;;;;5090971;28;20496;-70
2021/11/13 10:39:07;;;;;;;30.27;15.77;;;10.70;99.90;;;;;;5088501;28;20573;-71
2021/11/13 10:41:50;;;;;;;15.73;11.60;;;10.60;99.90;;;;;;5099738;28;20452;-71
2021/11/13 10:44:26;;;;;;;14.63;11.90;;;10.60;99.90;;;;;;5090540;28;20443;-70
2021/11/13 10:46:59;;;;;;;14.67;12.20;;;10.50;99.90;;;;;;5088887;28;20450;-71
2021/11/13 10:49:30;;;;;;;14.33;9.70;;;10.50;99.90;;;;;;5089695;28;20450;-70
2021/11/13 10:52:02;;;;;;;11.33;9.20;;;10.40;99.90;;;;;;5088195;28;20492;-70
2021/11/13 10:54:34;;;;;;;16.10;9.43;;;10.50;99.90;;;;;;5099743;28;21001;-70
2021/11/13 10:57:07;;;;;;;14.75;9.05;;;10.50;99.90;;;;;;5082673;28;20447;-70
2021/11/13 10:59:41;;;;;;;11.80;8.87;;;10.50;99.90;;;;;;5093558;28;20216;-70
2021/11/13 11:02:13;;;;;;;11.13;8.20;;;10.40;99.90;;;;;;5088067;28;20952;-70
2021/11/13 11:04:48;;;;;;;12.97;8.70;;;10.40;99.90;;;;;;5095495;28;20933;-78
2021/11/13 11:07:20;;;;;;;28.87;12.10;;;10.30;99.90;;;;;;5105268;28;20454;-72
2021/11/13 11:10:01;;;;;;;13.97;8.27;;;10.20;99.90;;;;;;5091704;28;20447;-70
2021/11/13 11:12:33;;;;;;;9.17;7.43;;;10.20;99.90;;;;;;5087387;28;20462;-70
2021/11/13 11:15:10;;;;;;;13.27;7.85;;;10.10;99.90;;;;;;5100680;28;20955;-70
2021/11/13 11:17:42;;;;;;;15.17;9.10;;;10.00;99.90;;;;;;5091521;28;20299;-70
2021/11/13 11:20:15;;;;;;;39.50;12.70;;;10.10;99.90;;;;;;5090019;28;20549;-70
2021/11/13 11:22:46;;;;;;;38.63;12.15;;;10.00;99.90;;;;;;5091575;28;20454;-70
2021/11/13 11:25:18;;;;;;;14.73;8.27;;;10.00;99.90;;;;;;5088002;28;20201;-73
2021/11/13 11:27:50;;;;;;;49.60;14.80;;;9.90;99.90;;;;;;5091652;28;20474;-70
2021/11/13 11:30:24;;;;;;;30.83;11.20;;;9.90;99.90;;;;;;5096243;28;20707;-71
2021/11/13 11:32:57;;;;;;;17.57;8.63;;;9.70;99.90;;;;;;5089987;28;20215;-71
2021/11/13 11:35:31;;;;;;;15.77;9.30;;;9.80;99.90;;;;;;5084015;28;20470;-71
2021/11/13 11:38:06;;;;;;;20.60;8.55;;;9.80;99.90;;;;;;5091087;28;20212;-70
2021/11/13 11:40:40;;;;;;;12.25;9.00;;;9.70;99.90;;;;;;5082190;28;20261;-70
2021/11/13 11:43:12;;;;;;;37.20;12.60;;;9.60;99.90;;;;;;5090805;28;20212;-70
2021/11/13 11:45:46;;;;;;;9.73;7.30;;;9.60;99.90;;;;;;5098551;28;20201;-75
2021/11/13 11:48:19;;;;;;;19.85;6.85;;;9.60;99.90;;;;;;5101160;28;20212;-73
2021/11/13 11:50:50;;;;;;;82.25;14.10;;;9.50;99.90;;;;;;5103732;28;20211;-70
2021/11/13 11:53:21;;;;;;;184.13;23.67;;;9.40;99.90;;;;;;5091428;28;20242;-66
2021/11/13 11:55:51;;;;;;;137.45;16.05;;;9.40;99.90;;;;;;5091919;28;20232;-68
2021/11/13 11:58:24;;;;;;;47.00;8.30;;;9.40;99.90;;;;;;5099458;28;20308;-69
2021/11/13 12:00:59;;;;;;;248.38;31.58;;;9.40;99.90;;;;;;5077036;28;20216;-75
2021/11/13 12:03:35;;;;;;;225.95;33.08;;;9.40;99.90;;;;;;5081666;28;20216;-71
2021/11/13 12:06:07;;;;;;;39.08;11.63;;;9.40;99.90;;;;;;5085651;28;20208;-69
2021/11/13 12:08:39;;;;;;;65.20;15.15;;;9.30;99.90;;;;;;5090718;28;20227;-70
2021/11/13 12:11:22;;;;;;;11.27;6.75;;;9.20;99.90;;;;;;5083034;28;20213;-73
2021/11/13 12:13:54;;;;;;;17.40;7.38;;;9.20;99.90;;;;;;5085019;28;20256;-71
2021/11/13 12:16:27;;;;;;;10.32;8.00;;;9.10;99.90;;;;;;5087994;28;20224;-73
2021/11/13 12:18:58;;;;;;;112.47;26.42;;;9.20;99.90;;;;;;5089691;28;20708;-73
2021/11/13 12:21:32;;;;;;;9.43;7.38;;;9.20;99.90;;;;;;5088620;28;20216;-71
2021/11/13 12:24:07;;;;;;;15.07;9.48;;;9.10;99.90;;;;;;5077162;28;20218;-69
2021/11/13 12:26:40;;;;;;;21.90;9.55;;;9.00;99.90;;;;;;5074718;28;20254;-70
2021/11/13 12:29:14;;;;;;;15.02;8.20;;;9.00;99.90;;;;;;5088611;28;20229;-70
2021/11/13 12:31:50;;;;;;;11.75;7.72;;;9.00;99.90;;;;;;5088921;28;20212;-71
2021/11/13 12:34:23;;;;;;;9.95;6.97;;;9.00;99.90;;;;;;5088373;28;20251;-69
2021/11/13 12:36:58;;;;;;;14.68;7.88;;;9.00;99.90;;;;;;5088380;28;20235;-69
2021/11/13 12:39:30;;;;;;;11.52;8.02;;;9.10;99.90;;;;;;5089878;28;20211;-75
2021/11/13 12:42:06;;;;;;;38.70;12.15;;;9.10;99.90;;;;;;5083503;28;20687;-70
2021/11/13 12:44:44;;;;;;;31.33;11.75;;;9.10;99.90;;;;;;5083106;28;20706;-70
2021/11/13 12:47:22;;;;;;;28.48;11.00;;;9.20;99.90;;;;;;5093107;28;20208;-69
2021/11/13 12:49:56;;;;;;;32.30;10.15;;;9.20;99.90;;;;;;5093365;28;20216;-69
2021/11/13 12:52:43;;;;;;;34.13;12.25;;;9.20;99.90;;;;;;5096489;28;20231;-68
2021/11/13 12:55:18;;;;;;;11.80;7.93;;;9.30;99.90;;;;;;5093813;28;20219;-70
2021/11/13 12:57:59;;;;;;;22.58;10.23;;;9.40;99.90;;;;;;5108486;28;20305;-69
2021/11/13 13:00:33;;;;;;;23.27;9.80;;;9.50;99.90;;;;;;5082997;28;20220;-69
2021/11/13 13:03:14;;;;;;;16.77;10.48;;;9.50;99.90;;;;;;5101852;28;20752;-69
2021/11/13 13:05:46;;;;;;;20.00;11.20;;;9.60;99.90;;;;;;5108487;28;20635;-69